createdAt,value
2023-03-12T00:01:44.433Z,98482.00
2023-03-12T00:19:03.073Z,98457.95
2023-03-12T00:22:33.550Z,98452.13
2023-03-12T00:25:05.579Z,98450.41
2023-03-12T00:27:34.722Z,98452.16
2023-03-12T00:30:05.216Z,98445.33
2023-03-12T00:32:36.244Z,98445.14
2023-03-12T00:35:05.788Z,98437.70
2023-03-12T00:37:34.419Z,98431.83
2023-03-12T00:40:06.084Z,98433.52
2023-03-12T00:42:35.964Z,98419.21
2023-03-12T00:45:04.513Z,98417.86
2023-03-12T00:47:33.075Z,98414.72
2023-03-12T00:50:01.665Z,98409.27
2023-03-12T00:52:30.260Z,98411.40
2023-03-12T00:54:59.225Z,98407.90
2023-03-12T00:57:29.106Z,98404.98
2023-03-12T00:59:57.648Z,98401.95
2023-03-12T01:02:26.236Z,98393.15
2023-03-12T01:04:55.869Z,98391.78
2023-03-12T01:07:26.023Z,98389.08
2023-03-12T01:09:54.919Z,98382.34
2023-03-12T01:12:23.517Z,98384.15
2023-03-12T01:14:52.000Z,98376.46
2023-03-12T01:17:20.924Z,98365.60
2023-03-12T01:19:49.444Z,98355.52
2023-03-12T01:22:17.897Z,98357.67
2023-03-12T01:24:46.323Z,98367.52
2023-03-12T01:27:14.674Z,98367.15
2023-03-12T01:29:43.550Z,98365.36
2023-03-12T01:32:12.025Z,98365.88
2023-03-12T01:34:40.524Z,98367.55
2023-03-12T01:37:09.063Z,98373.98
2023-03-12T01:39:37.516Z,98368.31
2023-03-12T01:42:06.457Z,98368.95
2023-03-12T01:45:22.928Z,98369.55
2023-03-12T01:48:30.843Z,98366.96
2023-03-12T01:50:59.813Z,98360.27
2023-03-12T01:53:28.847Z,98359.30
2023-03-12T01:55:57.914Z,98357.34
2023-03-12T01:58:27.235Z,98353.69
2023-03-12T02:00:55.844Z,98352.55
2023-03-12T02:03:25.045Z,98354.54
2023-03-12T02:06:02.624Z,98359.63
2023-03-12T02:08:31.976Z,98353.41
2023-03-12T02:11:01.419Z,98351.02
2023-03-12T02:13:30.343Z,98349.11
2023-03-12T02:16:01.206Z,98338.58
2023-03-12T02:18:31.528Z,98335.05
2023-03-12T02:21:01.662Z,98336.37
2023-03-12T02:23:34.387Z,98337.70
2023-03-12T02:26:03.848Z,98331.58
2023-03-12T02:28:32.730Z,98326.90
2023-03-12T02:31:03.055Z,98329.45
2023-03-12T02:33:33.365Z,98334.67
2023-03-12T02:36:01.803Z,98334.00
2023-03-12T02:38:33.935Z,98332.19
2023-03-12T02:41:04.163Z,98330.33
2023-03-12T02:43:37.156Z,98335.31
2023-03-12T02:49:52.527Z,98331.39
2023-03-12T02:52:21.431Z,98329.88
2023-03-12T02:54:55.508Z,98323.64
2023-03-12T02:57:23.990Z,98323.31
2023-03-12T02:59:52.577Z,98324.64
2023-03-12T03:02:21.826Z,98322.47
2023-03-12T03:04:50.383Z,98318.86
2023-03-12T03:07:20.930Z,98324.93
2023-03-12T03:10:22.154Z,98322.40
2023-03-12T03:13:10.908Z,98324.02
2023-03-12T03:16:17.624Z,98324.70
2023-03-12T03:18:47.610Z,98330.16
2023-03-12T03:21:17.244Z,98332.14
2023-03-12T03:24:10.563Z,98330.21
2023-03-12T03:26:42.690Z,98326.89
2023-03-12T03:29:17.738Z,98325.46
2023-03-12T03:32:12.596Z,98326.16
2023-03-12T03:35:03.626Z,98327.09
2023-03-12T03:37:34.693Z,98318.64
2023-03-12T03:40:04.049Z,98315.52
2023-03-12T03:42:36.469Z,98311.98
2023-03-12T03:45:12.261Z,98311.52
2023-03-12T03:47:42.894Z,98310.58
2023-03-12T03:50:12.205Z,98308.77
2023-03-12T03:52:41.203Z,98309.76
2023-03-12T03:55:10.435Z,98307.89
2023-03-12T03:57:40.572Z,98306.45
2023-03-12T04:00:13.499Z,98312.50
2023-03-12T04:02:46.275Z,98315.42
2023-03-12T04:05:19.899Z,98305.95
2023-03-12T04:07:49.706Z,98309.29
2023-03-12T04:10:21.282Z,98313.27
2023-03-12T04:12:51.589Z,98304.42
2023-03-12T04:15:24.188Z,98311.30
2023-03-12T04:17:53.231Z,98313.77
2023-03-12T04:20:22.937Z,98316.81
2023-03-12T04:22:51.796Z,98319.85
2023-03-12T04:25:20.857Z,98318.48
2023-03-12T04:27:49.798Z,98320.75
2023-03-12T04:30:18.521Z,98316.27
2023-03-12T04:32:47.221Z,98326.75
2023-03-12T04:35:20.088Z,98326.20
2023-03-12T04:37:48.974Z,98332.27
2023-03-12T04:40:19.605Z,98337.45
2023-03-12T04:42:48.366Z,98340.95
2023-03-12T04:45:17.665Z,98347.77
2023-03-12T04:47:49.816Z,98354.60
2023-03-12T04:50:19.435Z,98355.93
2023-03-12T04:52:48.267Z,98366.50
2023-03-12T04:55:18.262Z,98383.97
2023-03-12T04:57:47.175Z,98405.02
2023-03-12T05:00:17.874Z,98424.58
2023-03-12T05:02:47.644Z,98446.19
2023-03-12T05:05:16.332Z,98469.65
2023-03-12T05:08:04.927Z,98483.75
2023-03-12T05:10:37.926Z,98486.71
2023-03-12T05:13:15.213Z,98494.40
2023-03-12T05:15:43.945Z,98506.21
2023-03-12T05:18:13.099Z,98513.41
2023-03-12T05:20:41.937Z,98507.66
2023-03-12T05:23:11.683Z,98494.96
2023-03-12T05:25:41.590Z,98492.41
2023-03-12T05:28:10.236Z,98489.02
2023-03-12T05:30:40.014Z,98500.38
2023-03-12T05:33:09.413Z,98533.70
2023-03-12T05:35:38.506Z,98564.21
2023-03-12T05:38:10.564Z,98589.96
2023-03-12T05:40:41.160Z,98591.83
2023-03-12T05:43:09.761Z,98601.02
2023-03-12T05:45:38.482Z,98610.27
2023-03-12T05:48:07.127Z,98613.30
2023-03-12T05:50:36.480Z,98618.92
2023-03-12T05:53:05.501Z,98628.33
2023-03-12T05:55:40.791Z,98634.89
2023-03-12T05:58:09.864Z,98645.95
2023-03-12T06:00:41.913Z,98655.48
2023-03-12T06:03:11.444Z,98663.23
2023-03-12T06:05:40.026Z,98675.77
2023-03-12T06:08:09.267Z,98687.10
2023-03-12T06:10:40.969Z,98695.10
2023-03-12T06:13:09.527Z,98704.77
2023-03-12T06:15:38.265Z,98712.91
2023-03-12T06:18:07.609Z,98719.59
2023-03-12T06:20:36.667Z,98731.55
2023-03-12T06:23:05.470Z,98739.58
2023-03-12T06:25:34.321Z,98740.95
2023-03-12T06:28:04.109Z,98751.51
2023-03-12T06:30:33.035Z,98755.38
2023-03-12T06:33:01.612Z,98755.41
2023-03-12T06:35:30.202Z,98762.06
2023-03-12T06:37:59.355Z,98754.95
2023-03-12T06:40:33.398Z,98765.05
2023-03-12T06:43:01.993Z,98770.89
2023-03-12T06:45:30.789Z,98776.08
2023-03-12T06:47:59.935Z,98775.38
2023-03-12T06:50:28.509Z,98782.70
2023-03-12T06:53:00.456Z,98786.67
2023-03-12T06:55:30.011Z,98798.84
2023-03-12T06:57:58.611Z,98803.11
2023-03-12T07:00:28.327Z,98807.45
2023-03-12T07:02:57.429Z,98809.01
2023-03-12T07:05:28.785Z,98825.28
2023-03-12T07:07:58.430Z,98831.40
2023-03-12T07:10:29.739Z,98844.34
2023-03-12T07:12:58.811Z,98857.79
2023-03-12T07:15:27.243Z,98869.59
2023-03-12T07:17:56.034Z,98872.65
2023-03-12T07:20:24.954Z,98880.38
2023-03-12T07:22:53.491Z,98886.25
2023-03-12T07:25:23.530Z,98892.42
2023-03-12T07:27:52.979Z,98907.54
2023-03-12T07:30:24.856Z,98917.52
2023-03-12T07:32:54.022Z,98929.33
2023-03-12T07:35:22.780Z,98935.20
2023-03-12T07:37:51.548Z,98950.05
2023-03-12T07:40:20.351Z,98961.64
2023-03-12T07:42:50.509Z,98972.46
2023-03-12T07:45:20.019Z,98980.13
2023-03-12T07:47:48.965Z,98987.39
2023-03-12T07:50:18.144Z,98994.67
2023-03-12T07:52:48.104Z,98998.85
2023-03-12T07:55:16.997Z,99009.73
2023-03-12T07:57:45.674Z,99012.02
2023-03-12T08:00:18.337Z,99016.25
2023-03-12T08:02:48.490Z,99018.40
2023-03-12T08:05:17.230Z,99033.41
2023-03-12T08:07:45.759Z,99042.73
2023-03-12T08:10:14.215Z,99046.96
2023-03-12T08:12:50.226Z,99046.83
2023-03-12T08:15:18.669Z,99043.27
2023-03-12T08:17:47.772Z,99051.92
2023-03-12T08:20:18.695Z,99062.58
2023-03-12T08:22:48.544Z,99067.97
2023-03-12T08:25:18.914Z,99075.02
2023-03-12T08:27:47.969Z,99079.23
2023-03-12T08:30:17.194Z,99090.08
2023-03-12T08:32:49.463Z,99094.80
2023-03-12T08:35:18.222Z,99096.06
2023-03-12T08:37:46.650Z,99104.58
2023-03-12T08:40:34.982Z,99095.37
2023-03-12T08:43:04.338Z,99103.18
2023-03-12T08:45:36.600Z,99107.79
2023-03-12T08:48:05.768Z,99116.77
2023-03-12T08:50:39.899Z,99118.27
2023-03-12T08:53:08.602Z,99125.88
2023-03-12T08:55:37.320Z,99125.15
2023-03-12T08:58:05.895Z,99130.64
2023-03-12T09:00:34.738Z,99143.20
2023-03-12T09:03:03.399Z,99150.08
2023-03-12T09:05:32.369Z,99157.05
2023-03-12T09:08:03.709Z,99169.32
2023-03-12T09:10:32.263Z,99174.11
2023-03-12T09:13:01.322Z,99179.66
2023-03-12T09:15:34.537Z,99183.67
2023-03-12T09:18:04.511Z,99190.63
2023-03-12T09:20:33.177Z,99204.55
2023-03-12T09:23:01.898Z,99213.66
2023-03-12T09:25:30.722Z,99222.71
2023-03-12T09:27:59.721Z,99224.31
2023-03-12T09:30:30.464Z,99230.47
2023-03-12T09:32:59.439Z,99238.08
2023-03-12T09:35:28.342Z,99249.55
2023-03-12T09:37:57.061Z,99262.88
2023-03-12T09:40:29.467Z,99271.27
2023-03-12T09:43:04.200Z,99273.91
2023-03-12T09:45:33.844Z,99283.90
2023-03-12T09:48:04.200Z,99287.27
2023-03-12T09:50:33.774Z,99289.98
2023-03-12T09:53:12.537Z,99298.37
2023-03-12T09:55:41.888Z,99305.14
2023-03-12T09:58:18.854Z,99317.90
2023-03-12T10:00:47.688Z,99316.83
2023-03-12T10:03:49.160Z,99321.61
2023-03-12T10:06:20.657Z,99335.55
2023-03-12T10:09:01.673Z,99330.56
2023-03-12T10:11:33.306Z,99340.05
2023-03-12T10:14:02.578Z,99348.45
2023-03-12T10:16:47.952Z,99352.33
2023-03-12T10:19:22.398Z,99356.16
2023-03-12T10:21:54.288Z,99355.51
2023-03-12T10:24:29.201Z,99361.76
2023-03-12T10:26:58.020Z,99367.43
2023-03-12T10:29:33.160Z,99366.98
2023-03-12T10:32:05.873Z,99367.31
2023-03-12T10:34:38.242Z,99381.09
2023-03-12T10:37:19.710Z,99388.13
2023-03-12T10:39:48.240Z,99395.54
2023-03-12T10:42:21.029Z,99397.86
2023-03-12T10:44:51.982Z,99406.38
2023-03-12T10:47:39.636Z,99414.52
2023-03-12T10:50:12.938Z,99417.64
2023-03-12T10:52:42.061Z,99415.55
2023-03-12T10:55:20.984Z,99416.45
2023-03-12T10:57:49.594Z,99420.09
2023-03-12T11:00:23.806Z,99425.98
2023-03-12T11:02:56.700Z,99427.92
2023-03-12T11:05:26.151Z,99439.54
2023-03-12T11:07:56.391Z,99442.70
2023-03-12T11:10:25.967Z,99437.08
2023-03-12T11:13:02.261Z,99444.16
2023-03-12T11:15:36.424Z,99453.95
2023-03-12T11:18:25.467Z,99462.17
2023-03-12T11:20:58.840Z,99468.30
2023-03-12T11:23:29.627Z,99478.54
2023-03-12T11:26:10.970Z,99487.55
2023-03-12T11:28:43.191Z,99488.75
2023-03-12T11:31:17.498Z,99497.80
2023-03-12T11:33:47.437Z,99495.03
2023-03-12T11:36:18.307Z,99503.36
2023-03-12T11:38:52.545Z,99509.38
2023-03-12T11:41:23.854Z,99509.82
2023-03-12T11:44:17.027Z,99514.50
2023-03-12T11:46:49.326Z,99512.48
2023-03-12T11:49:17.767Z,99518.98
2023-03-12T11:51:49.841Z,99530.33
2023-03-12T11:54:29.375Z,99531.59
2023-03-12T11:57:02.611Z,99539.50
2023-03-12T11:59:34.924Z,99545.16
2023-03-12T12:02:15.674Z,99554.71
2023-03-12T12:04:52.963Z,99560.20
2023-03-12T12:07:24.440Z,99566.30
2023-03-12T12:09:53.618Z,99569.81
2023-03-12T12:12:36.733Z,99576.25
2023-03-12T12:15:14.692Z,99588.14
2023-03-12T12:18:02.230Z,99592.99
2023-03-12T12:20:41.752Z,99599.95
2023-03-12T12:23:15.506Z,99611.58
2023-03-12T12:25:50.082Z,99615.11
2023-03-12T12:28:24.917Z,99623.61
2023-03-12T12:31:06.265Z,99635.89
2023-03-12T12:33:40.597Z,99642.83
2023-03-12T12:36:10.182Z,99651.91
2023-03-12T12:38:42.758Z,99658.02
2023-03-12T12:41:15.859Z,99664.73
2023-03-12T12:43:47.782Z,99666.24
2023-03-12T12:46:17.624Z,99666.94
2023-03-12T12:48:49.560Z,99676.70
2023-03-12T12:51:18.198Z,99688.74
2023-03-12T12:53:52.160Z,99706.86
2023-03-12T12:56:20.490Z,99714.05
2023-03-12T12:58:48.875Z,99721.39
2023-03-12T13:01:19.072Z,99735.11
2023-03-12T13:03:50.400Z,99739.21
2023-03-12T13:06:18.803Z,99744.99
2023-03-12T13:08:47.591Z,99747.61
2023-03-12T13:11:20.030Z,99754.31
2023-03-12T13:14:04.893Z,99762.91
2023-03-12T13:16:34.204Z,99763.00
2023-03-12T13:19:09.200Z,99771.43
2023-03-12T13:21:37.597Z,99777.90
2023-03-12T13:24:24.599Z,99780.75
2023-03-12T13:26:52.999Z,99784.63
2023-03-12T13:29:21.295Z,99786.20
2023-03-12T13:31:50.524Z,99791.77
2023-03-12T13:34:19.496Z,99788.71
2023-03-12T13:36:52.956Z,99803.56
2023-03-12T13:39:34.516Z,99809.65
2023-03-12T13:42:22.531Z,99820.56
2023-03-12T13:44:51.655Z,99824.85
2023-03-12T13:47:23.433Z,99831.21
2023-03-12T13:49:58.950Z,99837.04
2023-03-12T13:52:29.124Z,99838.77
2023-03-12T13:54:58.953Z,99849.26
2023-03-12T13:57:44.177Z,99847.60
2023-03-12T14:00:29.612Z,99845.08
2023-03-12T14:03:02.106Z,99854.08
2023-03-12T14:05:31.900Z,99854.14
2023-03-12T14:08:00.530Z,99854.20
2023-03-12T14:10:48.076Z,99855.45
2023-03-12T14:13:24.694Z,99857.16
2023-03-12T14:16:02.690Z,99864.73
2023-03-12T14:18:31.301Z,99872.05
2023-03-12T14:21:00.187Z,99882.56
2023-03-12T14:23:39.798Z,99892.33
2023-03-12T14:26:09.890Z,99896.56
2023-03-12T14:28:39.854Z,99900.01
2023-03-12T14:31:10.095Z,99905.36
2023-03-12T14:34:00.824Z,99909.58
2023-03-12T14:36:30.040Z,99915.09
2023-03-12T14:39:10.041Z,99916.86
2023-03-12T14:41:40.149Z,99927.00
2023-03-12T14:44:22.374Z,99930.16
2023-03-12T14:47:00.898Z,99931.10
2023-03-12T14:49:30.242Z,99936.48
2023-03-12T14:51:59.346Z,99936.50
2023-03-12T14:54:28.595Z,99945.61
2023-03-12T14:56:59.274Z,99954.56
2023-03-12T14:59:28.787Z,99962.02
2023-03-12T15:01:59.237Z,99969.73
2023-03-12T15:04:29.218Z,99971.84
2023-03-12T15:06:59.137Z,99980.39
2023-03-12T15:09:28.812Z,99982.95
2023-03-12T15:12:00.223Z,99985.73
2023-03-12T15:14:29.864Z,99993.29
2023-03-12T15:17:03.920Z,100004.48
2023-03-12T15:19:35.766Z,100010.02
2023-03-12T15:22:04.693Z,100016.39
2023-03-12T15:24:37.718Z,100019.23
2023-03-12T15:27:24.994Z,100027.45
2023-03-12T15:29:53.937Z,100030.95
2023-03-12T15:32:25.154Z,100033.11
2023-03-12T15:34:54.085Z,100042.17
2023-03-12T15:37:29.922Z,100052.17
2023-03-12T15:39:59.253Z,100058.39
2023-03-12T15:42:27.904Z,100066.61
2023-03-12T15:44:57.677Z,100072.14
2023-03-12T15:47:29.344Z,100082.70
2023-03-12T15:49:58.526Z,100091.78
2023-03-12T15:52:31.303Z,100097.66
2023-03-12T15:54:59.681Z,100104.13
2023-03-12T15:57:28.160Z,100110.36
2023-03-12T16:00:13.606Z,100114.98
2023-03-12T16:02:53.029Z,100127.02
2023-03-12T16:05:30.368Z,100131.03
2023-03-12T16:08:01.389Z,100142.07
2023-03-12T16:10:32.375Z,100147.67
2023-03-12T16:13:02.508Z,100158.66
2023-03-12T16:15:33.152Z,100166.75
2023-03-12T16:18:03.612Z,100173.48
2023-03-12T16:20:33.210Z,100178.33
2023-03-12T16:23:02.523Z,100181.19
2023-03-12T16:25:31.199Z,100191.64
2023-03-12T16:28:01.091Z,100195.84
2023-03-12T16:30:34.016Z,100202.61
2023-03-12T16:33:03.850Z,100207.34
2023-03-12T16:35:34.511Z,100215.14
2023-03-12T16:38:03.661Z,100218.90
2023-03-12T16:40:36.896Z,100220.80
2023-03-12T16:43:07.082Z,100228.73
2023-03-12T16:46:03.200Z,100233.19
2023-03-12T16:48:41.550Z,100241.87
2023-03-12T16:51:14.425Z,100245.39
2023-03-12T16:53:43.709Z,100252.64
2023-03-12T16:56:17.079Z,100254.58
2023-03-12T16:59:07.537Z,100262.28
2023-03-12T17:01:42.797Z,100268.48
2023-03-12T17:04:13.243Z,100267.94
2023-03-12T17:06:43.065Z,100267.11
2023-03-12T17:09:14.896Z,100273.14
2023-03-12T17:12:29.645Z,100272.98
2023-03-12T17:15:02.445Z,100277.11
2023-03-12T17:17:32.541Z,100282.63
2023-03-12T17:20:01.179Z,100288.03
2023-03-12T17:23:10.808Z,100290.47
2023-03-12T17:25:40.456Z,100301.10
2023-03-12T17:28:09.283Z,100306.29
2023-03-12T17:30:38.751Z,100310.29
2023-03-12T17:33:08.978Z,100312.68
2023-03-12T17:35:37.516Z,100317.33
2023-03-12T17:38:06.149Z,100321.98
2023-03-12T17:40:35.929Z,100326.05
2023-03-12T17:43:09.478Z,100330.05
2023-03-12T17:45:38.324Z,100334.02
2023-03-12T17:48:07.079Z,100338.36
2023-03-12T17:50:36.899Z,100347.20
2023-03-12T17:53:05.549Z,100348.79
2023-03-12T17:55:35.140Z,100353.70
2023-03-12T17:58:04.784Z,100357.64
2023-03-12T18:00:39.471Z,100357.77
2023-03-12T18:03:08.190Z,100360.82
2023-03-12T18:05:38.988Z,100368.52
2023-03-12T18:08:08.287Z,100366.31
2023-03-12T18:10:41.107Z,100370.02
2023-03-12T18:13:09.755Z,100371.92
2023-03-12T18:15:41.765Z,100371.02
2023-03-12T18:18:10.682Z,100379.00
2023-03-12T18:20:40.111Z,100378.57
2023-03-12T18:23:08.513Z,100379.69
2023-03-12T18:25:37.330Z,100386.70
2023-03-12T18:28:06.957Z,100389.61
2023-03-12T18:30:36.245Z,100393.38
2023-03-12T18:33:04.966Z,100392.92
2023-03-12T18:35:33.787Z,100397.77
2023-03-12T18:38:03.124Z,100397.73
2023-03-12T18:40:33.344Z,100401.91
2023-03-12T18:43:01.797Z,100404.42
2023-03-12T18:45:30.920Z,100407.65
2023-03-12T18:47:59.229Z,100412.46
2023-03-12T18:50:28.830Z,100412.89
2023-03-12T18:52:57.812Z,100416.60
2023-03-12T18:55:26.808Z,100422.51
2023-03-12T18:57:57.925Z,100425.03
2023-03-12T19:00:26.661Z,100425.81
2023-03-12T19:02:55.670Z,100429.40
2023-03-12T19:05:26.698Z,100429.48
2023-03-12T19:10:43.307Z,100444.73
2023-03-12T19:13:11.946Z,100448.05
2023-03-12T19:15:45.408Z,100454.23
2023-03-12T19:18:14.693Z,100461.23
2023-03-12T19:20:45.662Z,100466.13
2023-03-12T19:23:16.716Z,100466.75
2023-03-12T19:25:46.679Z,100472.10
2023-03-12T19:28:19.369Z,100475.12
2023-03-12T19:30:48.158Z,100473.85
2023-03-12T19:33:20.983Z,100473.44
2023-03-12T19:36:20.618Z,100472.74
2023-03-12T19:38:50.812Z,100478.05
2023-03-12T19:41:22.495Z,100478.61
2023-03-12T19:43:53.196Z,100475.22
2023-03-12T19:46:25.267Z,100478.81
2023-03-12T19:48:54.710Z,100478.14
2023-03-12T19:51:32.417Z,100481.86
2023-03-12T19:54:01.419Z,100483.38
2023-03-12T19:56:29.807Z,100484.89
2023-03-12T19:59:01.907Z,100485.80
2023-03-12T20:01:31.978Z,100491.63
2023-03-12T20:04:01.278Z,100498.61
2023-03-12T20:06:34.415Z,100504.11
2023-03-12T20:09:04.715Z,100501.92
2023-03-12T20:11:38.695Z,100507.60
2023-03-12T20:14:10.501Z,100508.97
2023-03-12T20:16:40.898Z,100512.73
2023-03-12T20:19:11.212Z,100517.45
2023-03-12T20:21:44.874Z,100514.25
2023-03-12T20:24:15.901Z,100520.44
2023-03-12T20:26:49.583Z,100525.70
2023-03-12T20:29:18.297Z,100531.50
2023-03-12T20:31:48.697Z,100527.83
2023-03-12T20:34:22.508Z,100528.81
2023-03-12T20:36:57.981Z,100530.02
2023-03-12T20:39:26.637Z,100530.15
2023-03-12T20:41:55.028Z,100532.33
2023-03-12T20:44:27.210Z,100534.09
2023-03-12T20:46:55.444Z,100532.09
2023-03-12T20:49:23.869Z,100539.44
2023-03-12T20:51:52.170Z,100539.61
2023-03-12T20:54:24.367Z,100540.79
2023-03-12T20:56:53.224Z,100541.85
2023-03-12T20:59:21.581Z,100543.62
2023-03-12T21:01:50.377Z,100544.58
2023-03-12T21:04:18.853Z,100549.86
2023-03-12T21:06:51.886Z,100553.21
2023-03-12T21:09:21.722Z,100551.48
2023-03-12T21:11:50.359Z,100554.86
2023-03-12T21:14:27.507Z,100551.64
2023-03-12T21:17:18.056Z,100558.47
2023-03-12T21:19:48.162Z,100559.96
2023-03-12T21:22:26.217Z,100561.44
2023-03-12T21:24:54.836Z,100565.58
2023-03-12T21:27:24.299Z,100566.29
2023-03-12T21:29:53.410Z,100571.52
2023-03-12T21:32:27.124Z,100575.08
2023-03-12T21:34:56.528Z,100579.91
2023-03-12T21:37:26.736Z,100584.51
2023-03-12T21:40:21.925Z,100594.88
2023-03-12T21:42:51.541Z,100599.14
2023-03-12T21:45:23.002Z,100604.70
2023-03-12T21:47:54.535Z,100607.69
2023-03-12T21:50:32.168Z,100607.72
2023-03-12T21:53:21.222Z,100613.96
2023-03-12T21:55:59.962Z,100616.09
2023-03-12T21:58:29.783Z,100622.25
2023-03-12T22:01:11.177Z,100620.59
2023-03-12T22:03:43.576Z,100623.91
2023-03-12T22:06:13.495Z,100624.70
2023-03-12T22:08:42.413Z,100629.65
2023-03-12T22:11:11.962Z,100636.06
2023-03-12T22:13:41.262Z,100636.10
2023-03-12T22:16:12.691Z,100637.17
2023-03-12T22:18:58.216Z,100641.58
2023-03-12T22:21:47.569Z,100643.83
2023-03-12T22:24:18.429Z,100651.04
2023-03-12T22:26:48.441Z,100657.42
2023-03-12T22:29:17.794Z,100662.41
2023-03-12T22:31:48.963Z,100667.48
2023-03-12T22:34:19.006Z,100667.39
2023-03-12T22:36:54.379Z,100674.52
2023-03-12T22:39:23.357Z,100679.27
2023-03-12T22:41:52.846Z,100684.68
2023-03-12T22:44:24.556Z,100682.70
2023-03-12T22:47:13.623Z,100686.66
2023-03-12T22:50:04.331Z,100688.64
2023-03-12T22:52:54.591Z,100693.83
2023-03-12T22:55:45.083Z,100701.11
2023-03-12T22:58:36.899Z,100702.45
2023-03-12T23:01:46.272Z,100706.88
2023-03-12T23:04:54.907Z,100717.50
